Worthington, MN

4:22 PM CDT on October 01, 2014 (GMT -0500)
Worthington Municipal | Change Station
CLOSE
Current Station
Airport
Location: Worthington,
Elevation: 1575 ft
Nearby Weather Stations

Elev 1575 ft 43.66 °N, 95.58 °W | Updated -771 second ago

Overcast
Overcast
57 °F
Feels Like 57 °F
N
18
Wind Variable Wind from ESE
Gusts 28 mph

Today
High -- | Low -- °F
--% Chance of Precip.
Yesterday
High -- | Low -- °F
Precip. -- in
7:19 AM 7:03 PM
Waxing Crescent, 51% visible
Pressure 29.79 in
Visibility 5.0 miles
Clouds Few 7500 ft
Overcast 10000 ft
Dew Point 55 °F
Humidity 94%
Rainfall 0.05 in
Snow Depth Not available.
UV 1 out of 12
Pollen 2.80 out of 12
Air Quality Not available.
Flu Activity Not available.
METAR KOTG 302135Z AUTO 12016G24KT 5SM FEW075 OVC100 14/13 A2979 RMK AO1 P0003

More Conditions Fewer Conditions

Pressure 29.79 in
Visibility 5.0 miles
Clouds Few 7500 ft
Overcast 10000 ft
Dew Point 55 °F
Humidity 94%
Rainfall 0.05 in
Snow Depth Not available.
UV 1 out of 12
Pollen 2.80 out of 12
Air Quality Not available.
Flu Activity Not available.
METAR KOTG 302135Z AUTO 12016G24KT 5SM FEW075 OVC100 14/13 A2979 RMK AO1 P0003

More Conditions Fewer Conditions

10-Day Weather Forecast

Almanac

Astronomy

Oct. 01, 2014 Rise Set
Actual Time 7:19 AM CDT 7:03 PM CDT
Civil Twilight 6:51 AM CDT 7:31 PM CDT
Nautical Twilight 6:18 AM CDT 8:05 PM CDT
Astronomical Twilight 5:44 AM CDT 8:38 PM CDT
Moon 2:29 PM CDT No Moon Set
Length of Visible Light 12h 40m
Length of Day
11h 43m
Tomorrow will be 2m 58s shorter.
Waxing Crescent, 51% of the Moon is Illuminated
Today
Waxing Crescent
Oct 8
Full
Oct 15
Last Quarter
Oct 23
New
Oct 30
First Quarter

Today's Extremes

State Highs State Lows

Community

WunderPhotos

Upload Photos

1,758,058 photos uploaded!

WunderBlogs® & News

By Dr. Jeff Masters
Director of Meteorology, Weather Underground
By Kari Strenfel
Meteorologist, Weather Underground
By Christopher C. Burt
Weather Historian, Weather Underground
October 1, 2014
October 1, 2014
October 1, 2014

Nearby

Snow Depth

Station Depth Elevation
No new snow has been reported.

Earthquake Activity

City Distance Mag. Time & Date
No recent earthquake activity has been reported nearby.
Minimum magnitude displayed is 2.5.

Coastal Water Temperatures

Place Temperature
No Stations Reporting

Nearby Weather Stations